sensor_id;sensor_type;location;lat;lon;timestamp;P1;durP1;ratioP1;P2;durP2;ratioP2
59024;SDS011;44806;48.008;13.666;2022-12-24T00:00:39;23.30;;;12.30;;
59024;SDS011;44806;48.008;13.666;2022-12-24T00:03:07;24.08;;;10.88;;
59024;SDS011;44806;48.008;13.666;2022-12-24T00:05:36;22.40;;;13.10;;
59024;SDS011;44806;48.008;13.666;2022-12-24T00:08:03;18.20;;;11.40;;
59024;SDS011;44806;48.008;13.666;2022-12-24T00:10:32;24.23;;;10.65;;
59024;SDS011;44806;48.008;13.666;2022-12-24T00:13:03;24.35;;;12.35;;
59024;SDS011;44806;48.008;13.666;2022-12-24T00:15:30;71.22;;;30.63;;
59024;SDS011;44806;48.008;13.666;2022-12-24T00:17:57;33.13;;;15.63;;
59024;SDS011;44806;48.008;13.666;2022-12-24T00:20:25;54.03;;;21.88;;
59024;SDS011;44806;48.008;13.666;2022-12-24T00:22:52;23.13;;;12.43;;
59024;SDS011;44806;48.008;13.666;2022-12-24T00:25:20;24.83;;;11.50;;
59024;SDS011;44806;48.008;13.666;2022-12-24T00:27:49;43.28;;;22.65;;
59024;SDS011;44806;48.008;13.666;2022-12-24T00:30:16;53.28;;;21.85;;
59024;SDS011;44806;48.008;13.666;2022-12-24T00:32:44;31.42;;;15.68;;
59024;SDS011;44806;48.008;13.666;2022-12-24T00:35:12;20.38;;;10.32;;
59024;SDS011;44806;48.008;13.666;2022-12-24T00:37:39;46.83;;;20.00;;
59024;SDS011;44806;48.008;13.666;2022-12-24T00:40:07;73.97;;;25.95;;
59024;SDS011;44806;48.008;13.666;2022-12-24T00:42:35;50.53;;;23.08;;
59024;SDS011;44806;48.008;13.666;2022-12-24T00:45:05;52.53;;;21.52;;
59024;SDS011;44806;48.008;13.666;2022-12-24T00:47:33;28.15;;;15.90;;
59024;SDS011;44806;48.008;13.666;2022-12-24T00:50:00;37.78;;;19.58;;
59024;SDS011;44806;48.008;13.666;2022-12-24T00:52:28;81.45;;;34.70;;
59024;SDS011;44806;48.008;13.666;2022-12-24T00:54:55;74.85;;;28.38;;
59024;SDS011;44806;48.008;13.666;2022-12-24T00:57:22;48.80;;;23.50;;
59024;SDS011;44806;48.008;13.666;2022-12-24T00:59:50;31.65;;;17.40;;
59024;SDS011;44806;48.008;13.666;2022-12-24T01:02:18;23.63;;;13.73;;
59024;SDS011;44806;48.008;13.666;2022-12-24T01:04:46;19.80;;;11.15;;
59024;SDS011;44806;48.008;13.666;2022-12-24T01:07:31;18.83;;;10.88;;
59024;SDS011;44806;48.008;13.666;2022-12-24T01:09:58;23.30;;;9.77;;
59024;SDS011;44806;48.008;13.666;2022-12-24T01:12:26;24.10;;;11.05;;
59024;SDS011;44806;48.008;13.666;2022-12-24T01:14:53;34.97;;;15.32;;
59024;SDS011;44806;48.008;13.666;2022-12-24T01:17:22;68.60;;;30.13;;
59024;SDS011;44806;48.008;13.666;2022-12-24T01:19:52;29.10;;;18.63;;
59024;SDS011;44806;48.008;13.666;2022-12-24T01:22:19;38.40;;;19.50;;
59024;SDS011;44806;48.008;13.666;2022-12-24T01:24:47;11.43;;;10.25;;
59024;SDS011;44806;48.008;13.666;2022-12-24T01:27:14;44.38;;;23.67;;
59024;SDS011;44806;48.008;13.666;2022-12-24T01:29:42;48.03;;;12.63;;
59024;SDS011;44806;48.008;13.666;2022-12-24T01:32:09;25.45;;;12.30;;
59024;SDS011;44806;48.008;13.666;2022-12-24T01:34:38;58.10;;;23.48;;
59024;SDS011;44806;48.008;13.666;2022-12-24T01:37:07;71.20;;;31.08;;
59024;SDS011;44806;48.008;13.666;2022-12-24T01:39:34;50.38;;;20.92;;
59024;SDS011;44806;48.008;13.666;2022-12-24T01:42:08;82.72;;;31.77;;
59024;SDS011;44806;48.008;13.666;2022-12-24T01:48:04;53.83;;;25.80;;
59024;SDS011;44806;48.008;13.666;2022-12-24T01:50:43;27.67;;;16.05;;
59024;SDS011;44806;48.008;13.666;2022-12-24T01:53:10;58.17;;;25.42;;
59024;SDS011;44806;48.008;13.666;2022-12-24T01:55:43;29.40;;;16.40;;
59024;SDS011;44806;48.008;13.666;2022-12-24T01:58:13;58.33;;;25.85;;
59024;SDS011;44806;48.008;13.666;2022-12-24T02:00:43;45.35;;;17.35;;
59024;SDS011;44806;48.008;13.666;2022-12-24T02:03:10;35.83;;;21.02;;
59024;SDS011;44806;48.008;13.666;2022-12-24T02:05:41;31.05;;;16.42;;
59024;SDS011;44806;48.008;13.666;2022-12-24T02:08:14;39.13;;;18.92;;
59024;SDS011;44806;48.008;13.666;2022-12-24T02:10:43;57.47;;;24.90;;
59024;SDS011;44806;48.008;13.666;2022-12-24T02:13:10;71.50;;;25.33;;
59024;SDS011;44806;48.008;13.666;2022-12-24T02:15:43;34.83;;;23.30;;
59024;SDS011;44806;48.008;13.666;2022-12-24T02:18:20;19.48;;;10.82;;
59024;SDS011;44806;48.008;13.666;2022-12-24T02:21:09;90.93;;;45.45;;
59024;SDS011;44806;48.008;13.666;2022-12-24T02:24:07;62.35;;;25.80;;
59024;SDS011;44806;48.008;13.666;2022-12-24T02:30:03;22.20;;;12.32;;
59024;SDS011;44806;48.008;13.666;2022-12-24T02:32:40;64.72;;;32.47;;
59024;SDS011;44806;48.008;13.666;2022-12-24T02:35:28;47.60;;;24.20;;
59024;SDS011;44806;48.008;13.666;2022-12-24T02:38:04;73.85;;;28.85;;
59024;SDS011;44806;48.008;13.666;2022-12-24T02:40:40;53.67;;;26.15;;
59024;SDS011;44806;48.008;13.666;2022-12-24T02:43:14;26.63;;;11.88;;
59024;SDS011;44806;48.008;13.666;2022-12-24T02:45:50;48.53;;;20.15;;
59024;SDS011;44806;48.008;13.666;2022-12-24T02:48:21;47.53;;;24.87;;
59024;SDS011;44806;48.008;13.666;2022-12-24T02:50:55;45.63;;;22.25;;
59024;SDS011;44806;48.008;13.666;2022-12-24T02:58:47;22.48;;;14.40;;
59024;SDS011;44806;48.008;13.666;2022-12-24T03:01:30;24.15;;;14.65;;
59024;SDS011;44806;48.008;13.666;2022-12-24T03:04:11;44.15;;;20.38;;
59024;SDS011;44806;48.008;13.666;2022-12-24T03:06:45;55.35;;;26.13;;
59024;SDS011;44806;48.008;13.666;2022-12-24T03:09:24;52.33;;;24.52;;
59024;SDS011;44806;48.008;13.666;2022-12-24T03:11:54;50.72;;;22.42;;
59024;SDS011;44806;48.008;13.666;2022-12-24T03:14:26;29.63;;;12.80;;
59024;SDS011;44806;48.008;13.666;2022-12-24T03:16:57;56.65;;;24.30;;
59024;SDS011;44806;48.008;13.666;2022-12-24T03:19:25;57.05;;;24.55;;
59024;SDS011;44806;48.008;13.666;2022-12-24T03:21:55;66.57;;;29.40;;
59024;SDS011;44806;48.008;13.666;2022-12-24T03:24:24;29.73;;;14.55;;
59024;SDS011;44806;48.008;13.666;2022-12-24T03:26:52;99.75;;;60.08;;
59024;SDS011;44806;48.008;13.666;2022-12-24T03:29:19;83.25;;;29.48;;
59024;SDS011;44806;48.008;13.666;2022-12-24T03:31:48;58.75;;;26.92;;
59024;SDS011;44806;48.008;13.666;2022-12-24T03:34:18;52.28;;;25.35;;
59024;SDS011;44806;48.008;13.666;2022-12-24T03:36:45;30.40;;;15.52;;
59024;SDS011;44806;48.008;13.666;2022-12-24T03:39:13;67.50;;;28.67;;
59024;SDS011;44806;48.008;13.666;2022-12-24T03:41:41;19.33;;;12.35;;
59024;SDS011;44806;48.008;13.666;2022-12-24T03:44:08;54.17;;;22.58;;
59024;SDS011;44806;48.008;13.666;2022-12-24T03:46:38;41.50;;;18.25;;
59024;SDS011;44806;48.008;13.666;2022-12-24T03:49:05;27.10;;;14.98;;
59024;SDS011;44806;48.008;13.666;2022-12-24T03:51:34;59.97;;;25.00;;
59024;SDS011;44806;48.008;13.666;2022-12-24T03:54:02;39.72;;;21.33;;
59024;SDS011;44806;48.008;13.666;2022-12-24T03:56:29;24.50;;;12.00;;
59024;SDS011;44806;48.008;13.666;2022-12-24T03:58:56;70.32;;;29.52;;
59024;SDS011;44806;48.008;13.666;2022-12-24T04:01:24;26.80;;;14.32;;
59024;SDS011;44806;48.008;13.666;2022-12-24T04:03:51;20.33;;;11.23;;
59024;SDS011;44806;48.008;13.666;2022-12-24T04:06:19;42.40;;;19.48;;
59024;SDS011;44806;48.008;13.666;2022-12-24T04:08:50;37.83;;;18.98;;
59024;SDS011;44806;48.008;13.666;2022-12-24T04:11:20;26.25;;;11.93;;
59024;SDS011;44806;48.008;13.666;2022-12-24T04:13:47;32.72;;;19.73;;
59024;SDS011;44806;48.008;13.666;2022-12-24T04:16:17;31.63;;;14.32;;
59024;SDS011;44806;48.008;13.666;2022-12-24T04:18:45;56.47;;;23.85;;
59024;SDS011;44806;48.008;13.666;2022-12-24T04:21:12;72.03;;;30.83;;
59024;SDS011;44806;48.008;13.666;2022-12-24T04:23:40;38.60;;;19.77;;
59024;SDS011;44806;48.008;13.666;2022-12-24T04:26:15;44.97;;;20.63;;
59024;SDS011;44806;48.008;13.666;2022-12-24T04:28:43;53.88;;;24.60;;
59024;SDS011;44806;48.008;13.666;2022-12-24T04:31:11;57.45;;;21.98;;
59024;SDS011;44806;48.008;13.666;2022-12-24T04:33:39;32.63;;;13.63;;
59024;SDS011;44806;48.008;13.666;2022-12-24T04:36:07;36.30;;;14.68;;
59024;SDS011;44806;48.008;13.666;2022-12-24T04:38:38;94.63;;;53.25;;
59024;SDS011;44806;48.008;13.666;2022-12-24T04:41:09;37.92;;;17.77;;
59024;SDS011;44806;48.008;13.666;2022-12-24T04:43:40;26.08;;;12.32;;
59024;SDS011;44806;48.008;13.666;2022-12-24T04:46:08;37.42;;;18.33;;
59024;SDS011;44806;48.008;13.666;2022-12-24T04:48:39;71.35;;;32.72;;
59024;SDS011;44806;48.008;13.666;2022-12-24T04:51:07;57.88;;;24.95;;
59024;SDS011;44806;48.008;13.666;2022-12-24T04:53:35;52.78;;;23.85;;
59024;SDS011;44806;48.008;13.666;2022-12-24T04:56:06;83.15;;;33.65;;
59024;SDS011;44806;48.008;13.666;2022-12-24T04:58:37;58.58;;;25.48;;
59024;SDS011;44806;48.008;13.666;2022-12-24T05:01:05;50.63;;;22.70;;
59024;SDS011;44806;48.008;13.666;2022-12-24T05:03:33;98.43;;;56.47;;
59024;SDS011;44806;48.008;13.666;2022-12-24T05:06:01;78.82;;;27.70;;
59024;SDS011;44806;48.008;13.666;2022-12-24T05:08:29;42.42;;;18.25;;
59024;SDS011;44806;48.008;13.666;2022-12-24T05:10:58;75.15;;;28.65;;
59024;SDS011;44806;48.008;13.666;2022-12-24T05:13:28;24.83;;;14.60;;
59024;SDS011;44806;48.008;13.666;2022-12-24T05:15:57;34.30;;;19.23;;
59024;SDS011;44806;48.008;13.666;2022-12-24T05:18:27;36.83;;;19.27;;
59024;SDS011;44806;48.008;13.666;2022-12-24T05:20:55;94.07;;;55.97;;
59024;SDS011;44806;48.008;13.666;2022-12-24T05:23:23;26.70;;;12.82;;
59024;SDS011;44806;48.008;13.666;2022-12-24T05:26:11;53.70;;;25.13;;
59024;SDS011;44806;48.008;13.666;2022-12-24T05:28:49;24.33;;;16.50;;
59024;SDS011;44806;48.008;13.666;2022-12-24T05:31:22;48.55;;;24.98;;
59024;SDS011;44806;48.008;13.666;2022-12-24T05:33:50;28.50;;;13.88;;
59024;SDS011;44806;48.008;13.666;2022-12-24T05:36:19;24.25;;;11.45;;
59024;SDS011;44806;48.008;13.666;2022-12-24T05:38:47;26.63;;;12.73;;
59024;SDS011;44806;48.008;13.666;2022-12-24T05:41:15;34.45;;;17.60;;
59024;SDS011;44806;48.008;13.666;2022-12-24T05:43:42;37.08;;;15.63;;
59024;SDS011;44806;48.008;13.666;2022-12-24T05:46:11;54.00;;;23.88;;
59024;SDS011;44806;48.008;13.666;2022-12-24T05:48:41;105.55;;;60.63;;
59024;SDS011;44806;48.008;13.666;2022-12-24T05:51:09;31.27;;;15.10;;
59024;SDS011;44806;48.008;13.666;2022-12-24T05:53:38;34.50;;;14.55;;
59024;SDS011;44806;48.008;13.666;2022-12-24T05:56:07;28.10;;;14.05;;
59024;SDS011;44806;48.008;13.666;2022-12-24T05:58:37;75.18;;;34.70;;
59024;SDS011;44806;48.008;13.666;2022-12-24T06:01:07;31.70;;;15.20;;
59024;SDS011;44806;48.008;13.666;2022-12-24T06:03:35;69.28;;;27.17;;
59024;SDS011;44806;48.008;13.666;2022-12-24T06:06:05;33.08;;;16.40;;
59024;SDS011;44806;48.008;13.666;2022-12-24T06:08:34;29.67;;;15.02;;
59024;SDS011;44806;48.008;13.666;2022-12-24T06:11:04;23.85;;;12.75;;
59024;SDS011;44806;48.008;13.666;2022-12-24T06:13:34;29.80;;;12.55;;
59024;SDS011;44806;48.008;13.666;2022-12-24T06:16:02;11.63;;;9.18;;
59024;SDS011;44806;48.008;13.666;2022-12-24T06:18:32;27.90;;;12.43;;
59024;SDS011;44806;48.008;13.666;2022-12-24T06:21:01;13.82;;;9.90;;
59024;SDS011;44806;48.008;13.666;2022-12-24T06:23:37;56.72;;;24.75;;
59024;SDS011;44806;48.008;13.666;2022-12-24T06:26:10;27.50;;;14.93;;
59024;SDS011;44806;48.008;13.666;2022-12-24T06:28:38;39.33;;;21.92;;
59024;SDS011;44806;48.008;13.666;2022-12-24T06:31:06;33.33;;;16.13;;
59024;SDS011;44806;48.008;13.666;2022-12-24T06:33:37;57.88;;;22.77;;
59024;SDS011;44806;48.008;13.666;2022-12-24T06:36:05;30.63;;;16.60;;
59024;SDS011;44806;48.008;13.666;2022-12-24T06:38:33;53.75;;;23.67;;
59024;SDS011;44806;48.008;13.666;2022-12-24T06:41:05;48.95;;;23.67;;
59024;SDS011;44806;48.008;13.666;2022-12-24T06:43:33;27.75;;;14.55;;
59024;SDS011;44806;48.008;13.666;2022-12-24T06:46:01;39.88;;;20.55;;
59024;SDS011;44806;48.008;13.666;2022-12-24T06:48:29;22.85;;;9.95;;
59024;SDS011;44806;48.008;13.666;2022-12-24T06:50:57;105.53;;;50.28;;
59024;SDS011;44806;48.008;13.666;2022-12-24T06:53:26;43.90;;;18.50;;
59024;SDS011;44806;48.008;13.666;2022-12-24T06:55:59;75.60;;;30.63;;
59024;SDS011;44806;48.008;13.666;2022-12-24T06:58:28;69.70;;;25.95;;
59024;SDS011;44806;48.008;13.666;2022-12-24T07:00:56;46.72;;;25.83;;
59024;SDS011;44806;48.008;13.666;2022-12-24T07:03:26;28.30;;;13.68;;
59024;SDS011;44806;48.008;13.666;2022-12-24T07:05:54;46.25;;;24.27;;
59024;SDS011;44806;48.008;13.666;2022-12-24T07:08:21;47.55;;;22.30;;
59024;SDS011;44806;48.008;13.666;2022-12-24T07:10:50;44.95;;;21.98;;
59024;SDS011;44806;48.008;13.666;2022-12-24T07:13:21;47.33;;;19.77;;
59024;SDS011;44806;48.008;13.666;2022-12-24T07:15:56;44.15;;;20.17;;
59024;SDS011;44806;48.008;13.666;2022-12-24T07:18:27;27.70;;;11.40;;
59024;SDS011;44806;48.008;13.666;2022-12-24T07:20:55;7.78;;;5.15;;
59024;SDS011;44806;48.008;13.666;2022-12-24T07:23:23;24.60;;;12.48;;
59024;SDS011;44806;48.008;13.666;2022-12-24T07:25:51;30.63;;;13.35;;
59024;SDS011;44806;48.008;13.666;2022-12-24T07:28:18;53.10;;;23.88;;
59024;SDS011;44806;48.008;13.666;2022-12-24T07:30:46;28.02;;;13.48;;
59024;SDS011;44806;48.008;13.666;2022-12-24T07:33:15;34.45;;;18.48;;
59024;SDS011;44806;48.008;13.666;2022-12-24T07:35:46;49.50;;;19.50;;
59024;SDS011;44806;48.008;13.666;2022-12-24T07:38:16;54.60;;;22.33;;
59024;SDS011;44806;48.008;13.666;2022-12-24T07:40:46;40.15;;;16.85;;
59024;SDS011;44806;48.008;13.666;2022-12-24T07:43:14;46.17;;;20.25;;
59024;SDS011;44806;48.008;13.666;2022-12-24T07:45:44;30.67;;;15.90;;
59024;SDS011;44806;48.008;13.666;2022-12-24T07:48:11;13.45;;;7.47;;
59024;SDS011;44806;48.008;13.666;2022-12-24T07:50:41;95.30;;;44.80;;
59024;SDS011;44806;48.008;13.666;2022-12-24T07:53:08;35.60;;;14.77;;
59024;SDS011;44806;48.008;13.666;2022-12-24T07:55:35;49.20;;;21.45;;
59024;SDS011;44806;48.008;13.666;2022-12-24T07:58:03;34.22;;;17.23;;
59024;SDS011;44806;48.008;13.666;2022-12-24T08:00:33;37.90;;;14.00;;
59024;SDS011;44806;48.008;13.666;2022-12-24T08:03:00;26.42;;;8.93;;
59024;SDS011;44806;48.008;13.666;2022-12-24T08:05:28;13.52;;;7.10;;
59024;SDS011;44806;48.008;13.666;2022-12-24T08:08:01;21.02;;;10.88;;
59024;SDS011;44806;48.008;13.666;2022-12-24T08:10:34;35.03;;;19.35;;
59024;SDS011;44806;48.008;13.666;2022-12-24T08:13:04;35.72;;;16.65;;
59024;SDS011;44806;48.008;13.666;2022-12-24T08:15:35;37.75;;;19.88;;
59024;SDS011;44806;48.008;13.666;2022-12-24T08:18:03;34.58;;;16.80;;
59024;SDS011;44806;48.008;13.666;2022-12-24T08:20:30;40.70;;;19.45;;
59024;SDS011;44806;48.008;13.666;2022-12-24T08:23:02;45.70;;;23.23;;
59024;SDS011;44806;48.008;13.666;2022-12-24T08:25:30;22.80;;;12.85;;
59024;SDS011;44806;48.008;13.666;2022-12-24T08:28:00;55.95;;;19.35;;
59024;SDS011;44806;48.008;13.666;2022-12-24T08:30:28;45.88;;;19.48;;
59024;SDS011;44806;48.008;13.666;2022-12-24T08:32:56;38.15;;;20.73;;
59024;SDS011;44806;48.008;13.666;2022-12-24T08:35:23;64.35;;;24.10;;
59024;SDS011;44806;48.008;13.666;2022-12-24T08:37:54;29.77;;;13.95;;
59024;SDS011;44806;48.008;13.666;2022-12-24T08:40:24;49.78;;;23.48;;
59024;SDS011;44806;48.008;13.666;2022-12-24T08:42:51;74.47;;;28.88;;
59024;SDS011;44806;48.008;13.666;2022-12-24T08:45:19;57.90;;;24.88;;
59024;SDS011;44806;48.008;13.666;2022-12-24T08:47:47;18.42;;;15.35;;
59024;SDS011;44806;48.008;13.666;2022-12-24T08:50:14;12.50;;;9.98;;
59024;SDS011;44806;48.008;13.666;2022-12-24T08:52:44;43.92;;;19.02;;
59024;SDS011;44806;48.008;13.666;2022-12-24T08:55:17;27.42;;;12.57;;
59024;SDS011;44806;48.008;13.666;2022-12-24T08:57:46;22.10;;;10.88;;
59024;SDS011;44806;48.008;13.666;2022-12-24T09:00:16;24.38;;;12.40;;
59024;SDS011;44806;48.008;13.666;2022-12-24T09:02:44;31.65;;;17.90;;
59024;SDS011;44806;48.008;13.666;2022-12-24T09:05:11;28.08;;;12.05;;
59024;SDS011;44806;48.008;13.666;2022-12-24T09:07:39;19.40;;;8.95;;
59024;SDS011;44806;48.008;13.666;2022-12-24T09:10:09;21.63;;;9.95;;
59024;SDS011;44806;48.008;13.666;2022-12-24T09:12:37;35.30;;;18.30;;
59024;SDS011;44806;48.008;13.666;2022-12-24T09:15:07;60.13;;;24.48;;
59024;SDS011;44806;48.008;13.666;2022-12-24T09:17:35;30.33;;;11.85;;
59024;SDS011;44806;48.008;13.666;2022-12-24T09:20:03;24.45;;;11.05;;
59024;SDS011;44806;48.008;13.666;2022-12-24T09:22:33;12.55;;;6.80;;
59024;SDS011;44806;48.008;13.666;2022-12-24T09:25:01;23.27;;;9.55;;
59024;SDS011;44806;48.008;13.666;2022-12-24T09:27:31;20.95;;;10.05;;
59024;SDS011;44806;48.008;13.666;2022-12-24T09:30:02;25.60;;;11.90;;
59024;SDS011;44806;48.008;13.666;2022-12-24T09:32:33;57.15;;;23.38;;
59024;SDS011;44806;48.008;13.666;2022-12-24T09:35:01;36.50;;;18.20;;
59024;SDS011;44806;48.008;13.666;2022-12-24T09:37:31;35.58;;;19.77;;
59024;SDS011;44806;48.008;13.666;2022-12-24T09:40:04;21.70;;;10.52;;
59024;SDS011;44806;48.008;13.666;2022-12-24T09:42:36;34.20;;;15.90;;
59024;SDS011;44806;48.008;13.666;2022-12-24T09:45:15;56.72;;;23.67;;
59024;SDS011;44806;48.008;13.666;2022-12-24T09:47:50;40.53;;;18.40;;
59024;SDS011;44806;48.008;13.666;2022-12-24T09:50:23;29.13;;;13.07;;
59024;SDS011;44806;48.008;13.666;2022-12-24T09:52:56;33.50;;;19.02;;
59024;SDS011;44806;48.008;13.666;2022-12-24T09:55:32;35.38;;;19.27;;
59024;SDS011;44806;48.008;13.666;2022-12-24T09:58:04;27.60;;;12.30;;
59024;SDS011;44806;48.008;13.666;2022-12-24T10:00:34;32.67;;;16.38;;
59024;SDS011;44806;48.008;13.666;2022-12-24T10:03:09;32.28;;;12.52;;
59024;SDS011;44806;48.008;13.666;2022-12-24T10:05:41;33.08;;;16.77;;
59024;SDS011;44806;48.008;13.666;2022-12-24T10:08:14;97.38;;;48.42;;
59024;SDS011;44806;48.008;13.666;2022-12-24T10:10:51;68.18;;;26.25;;
59024;SDS011;44806;48.008;13.666;2022-12-24T10:13:29;35.55;;;17.80;;
59024;SDS011;44806;48.008;13.666;2022-12-24T10:16:07;17.40;;;9.73;;
59024;SDS011;44806;48.008;13.666;2022-12-24T10:18:43;72.18;;;30.05;;
59024;SDS011;44806;48.008;13.666;2022-12-24T10:21:23;31.80;;;16.33;;
59024;SDS011;44806;48.008;13.666;2022-12-24T10:24:01;29.88;;;12.70;;
59024;SDS011;44806;48.008;13.666;2022-12-24T10:29:21;17.58;;;9.60;;
59024;SDS011;44806;48.008;13.666;2022-12-24T10:31:52;36.28;;;17.90;;
59024;SDS011;44806;48.008;13.666;2022-12-24T10:34:27;16.50;;;11.02;;
59024;SDS011;44806;48.008;13.666;2022-12-24T10:36:59;87.82;;;46.90;;
59024;SDS011;44806;48.008;13.666;2022-12-24T10:39:31;59.42;;;24.52;;
59024;SDS011;44806;48.008;13.666;2022-12-24T10:42:02;29.70;;;14.57;;
59024;SDS011;44806;48.008;13.666;2022-12-24T10:44:32;37.55;;;18.25;;
59024;SDS011;44806;48.008;13.666;2022-12-24T10:47:05;37.72;;;20.85;;
59024;SDS011;44806;48.008;13.666;2022-12-24T10:49:36;49.28;;;24.20;;
59024;SDS011;44806;48.008;13.666;2022-12-24T10:52:10;30.43;;;12.90;;
59024;SDS011;44806;48.008;13.666;2022-12-24T10:57:35;66.18;;;25.10;;
59024;SDS011;44806;48.008;13.666;2022-12-24T11:00:06;31.98;;;15.90;;
59024;SDS011;44806;48.008;13.666;2022-12-24T11:02:45;25.75;;;12.63;;
59024;SDS011;44806;48.008;13.666;2022-12-24T11:05:39;33.08;;;15.50;;
59024;SDS011;44806;48.008;13.666;2022-12-24T11:08:13;38.22;;;21.65;;
59024;SDS011;44806;48.008;13.666;2022-12-24T11:10:52;51.03;;;20.63;;
59024;SDS011;44806;48.008;13.666;2022-12-24T11:13:21;52.50;;;24.70;;
59024;SDS011;44806;48.008;13.666;2022-12-24T11:15:58;54.67;;;24.00;;
59024;SDS011;44806;48.008;13.666;2022-12-24T11:18:28;42.38;;;19.73;;
59024;SDS011;44806;48.008;13.666;2022-12-24T11:21:01;73.55;;;29.30;;
59024;SDS011;44806;48.008;13.666;2022-12-24T11:23:30;29.70;;;14.18;;
59024;SDS011;44806;48.008;13.666;2022-12-24T11:26:00;24.67;;;11.30;;
59024;SDS011;44806;48.008;13.666;2022-12-24T11:28:28;17.05;;;9.43;;
59024;SDS011;44806;48.008;13.666;2022-12-24T11:31:02;31.17;;;13.82;;
59024;SDS011;44806;48.008;13.666;2022-12-24T11:33:32;54.38;;;20.55;;
59024;SDS011;44806;48.008;13.666;2022-12-24T11:36:17;28.60;;;14.18;;
59024;SDS011;44806;48.008;13.666;2022-12-24T11:38:51;24.02;;;11.90;;
59024;SDS011;44806;48.008;13.666;2022-12-24T11:41:19;22.25;;;10.20;;
59024;SDS011;44806;48.008;13.666;2022-12-24T11:43:49;34.38;;;19.52;;
59024;SDS011;44806;48.008;13.666;2022-12-24T11:46:37;24.45;;;11.32;;
59024;SDS011;44806;48.008;13.666;2022-12-24T11:49:15;31.40;;;13.07;;
59024;SDS011;44806;48.008;13.666;2022-12-24T11:54:45;105.63;;;54.63;;
59024;SDS011;44806;48.008;13.666;2022-12-24T11:57:23;51.08;;;21.70;;
59024;SDS011;44806;48.008;13.666;2022-12-24T11:59:57;121.82;;;53.92;;
59024;SDS011;44806;48.008;13.666;2022-12-24T12:02:26;39.78;;;21.13;;
59024;SDS011;44806;48.008;13.666;2022-12-24T12:04:58;60.15;;;28.13;;
59024;SDS011;44806;48.008;13.666;2022-12-24T12:07:32;34.80;;;16.30;;
59024;SDS011;44806;48.008;13.666;2022-12-24T12:10:02;35.22;;;12.38;;
59024;SDS011;44806;48.008;13.666;2022-12-24T12:12:34;80.03;;;41.65;;
59024;SDS011;44806;48.008;13.666;2022-12-24T12:15:10;54.78;;;23.25;;
59024;SDS011;44806;48.008;13.666;2022-12-24T12:17:41;31.80;;;15.35;;
59024;SDS011;44806;48.008;13.666;2022-12-24T12:20:15;33.78;;;15.70;;
59024;SDS011;44806;48.008;13.666;2022-12-24T12:22:51;47.58;;;21.33;;
59024;SDS011;44806;48.008;13.666;2022-12-24T12:25:30;33.42;;;19.58;;
59024;SDS011;44806;48.008;13.666;2022-12-24T12:28:05;21.38;;;11.38;;
59024;SDS011;44806;48.008;13.666;2022-12-24T12:30:39;53.40;;;25.20;;
59024;SDS011;44806;48.008;13.666;2022-12-24T12:33:11;109.03;;;59.85;;
59024;SDS011;44806;48.008;13.666;2022-12-24T12:35:45;77.78;;;32.63;;
59024;SDS011;44806;48.008;13.666;2022-12-24T12:38:18;30.52;;;15.80;;
59024;SDS011;44806;48.008;13.666;2022-12-24T12:40:59;29.17;;;14.43;;
59024;SDS011;44806;48.008;13.666;2022-12-24T12:43:40;14.20;;;9.13;;
59024;SDS011;44806;48.008;13.666;2022-12-24T12:46:45;41.42;;;22.27;;
59024;SDS011;44806;48.008;13.666;2022-12-24T12:49:27;39.97;;;17.38;;
59024;SDS011;44806;48.008;13.666;2022-12-24T12:52:05;21.92;;;11.25;;
59024;SDS011;44806;48.008;13.666;2022-12-24T12:54:53;52.88;;;23.80;;
59024;SDS011;44806;48.008;13.666;2022-12-24T12:57:35;26.85;;;11.93;;
59024;SDS011;44806;48.008;13.666;2022-12-24T13:00:05;54.88;;;23.50;;
59024;SDS011;44806;48.008;13.666;2022-12-24T13:02:49;27.65;;;14.27;;
59024;SDS011;44806;48.008;13.666;2022-12-24T13:09:00;30.70;;;12.48;;
59024;SDS011;44806;48.008;13.666;2022-12-24T13:11:55;115.30;;;54.95;;
59024;SDS011;44806;48.008;13.666;2022-12-24T13:17:52;31.83;;;15.23;;
59024;SDS011;44806;48.008;13.666;2022-12-24T13:20:36;87.82;;;38.28;;
59024;SDS011;44806;48.008;13.666;2022-12-24T13:23:12;111.13;;;53.75;;
59024;SDS011;44806;48.008;13.666;2022-12-24T13:25:44;63.42;;;25.20;;
59024;SDS011;44806;48.008;13.666;2022-12-24T14:07:37;516.38;;;195.00;;
59024;SDS011;44806;48.008;13.666;2022-12-24T14:10:18;158.98;;;86.68;;
59024;SDS011;44806;48.008;13.666;2022-12-24T14:12:49;137.20;;;73.57;;
59024;SDS011;44806;48.008;13.666;2022-12-24T14:18:24;145.40;;;83.68;;
59024;SDS011;44806;48.008;13.666;2022-12-24T14:20:56;131.00;;;77.65;;
59024;SDS011;44806;48.008;13.666;2022-12-24T14:23:32;124.10;;;75.40;;
59024;SDS011;44806;48.008;13.666;2022-12-24T14:26:14;122.35;;;73.07;;
59024;SDS011;44806;48.008;13.666;2022-12-24T14:28:46;127.18;;;70.32;;
59024;SDS011;44806;48.008;13.666;2022-12-24T14:31:21;121.32;;;76.55;;
59024;SDS011;44806;48.008;13.666;2022-12-24T14:33:50;139.27;;;74.88;;
59024;SDS011;44806;48.008;13.666;2022-12-24T14:36:19;132.13;;;73.32;;
59024;SDS011;44806;48.008;13.666;2022-12-24T14:38:51;142.20;;;78.10;;
59024;SDS011;44806;48.008;13.666;2022-12-24T14:41:29;128.05;;;76.15;;
59024;SDS011;44806;48.008;13.666;2022-12-24T14:44:17;121.85;;;71.90;;
59024;SDS011;44806;48.008;13.666;2022-12-24T14:46:52;129.65;;;79.78;;
59024;SDS011;44806;48.008;13.666;2022-12-24T14:49:27;131.13;;;76.03;;
59024;SDS011;44806;48.008;13.666;2022-12-24T14:52:05;110.25;;;61.67;;
59024;SDS011;44806;48.008;13.666;2022-12-24T14:54:44;116.32;;;68.88;;
59024;SDS011;44806;48.008;13.666;2022-12-24T14:57:21;131.00;;;76.68;;
59024;SDS011;44806;48.008;13.666;2022-12-24T14:59:51;116.20;;;76.55;;
59024;SDS011;44806;48.008;13.666;2022-12-24T15:02:24;122.78;;;73.70;;
59024;SDS011;44806;48.008;13.666;2022-12-24T15:05:07;145.05;;;78.57;;
59024;SDS011;44806;48.008;13.666;2022-12-24T15:07:37;135.32;;;73.15;;
59024;SDS011;44806;48.008;13.666;2022-12-24T15:10:25;119.82;;;58.97;;
59024;SDS011;44806;48.008;13.666;2022-12-24T15:13:00;122.57;;;64.68;;
59024;SDS011;44806;48.008;13.666;2022-12-24T15:15:29;127.97;;;67.88;;
59024;SDS011;44806;48.008;13.666;2022-12-24T15:17:58;116.82;;;66.25;;
59024;SDS011;44806;48.008;13.666;2022-12-24T15:20:29;119.35;;;68.22;;
59024;SDS011;44806;48.008;13.666;2022-12-24T15:22:57;112.10;;;72.90;;
59024;SDS011;44806;48.008;13.666;2022-12-24T15:25:27;125.00;;;75.18;;
59024;SDS011;44806;48.008;13.666;2022-12-24T15:27:57;125.93;;;72.15;;
59024;SDS011;44806;48.008;13.666;2022-12-24T15:30:28;121.63;;;66.88;;
59024;SDS011;44806;48.008;13.666;2022-12-24T15:33:02;136.25;;;74.43;;
59024;SDS011;44806;48.008;13.666;2022-12-24T15:35:42;118.63;;;65.45;;
59024;SDS011;44806;48.008;13.666;2022-12-24T15:38:29;112.53;;;67.68;;
59024;SDS011;44806;48.008;13.666;2022-12-24T15:41:01;120.03;;;63.70;;
59024;SDS011;44806;48.008;13.666;2022-12-24T15:43:33;115.53;;;69.18;;